createdAt,value
2018-12-03T00:03:53.513Z,400.13
2018-12-03T00:06:24.105Z,440.37
2018-12-03T00:08:54.568Z,478.20
2018-12-03T00:11:24.951Z,438.10
2018-12-03T00:13:55.494Z,420.93
2018-12-03T00:16:25.843Z,407.27
2018-12-03T00:18:56.337Z,418.17
2018-12-03T00:21:26.839Z,417.93
2018-12-03T00:23:57.250Z,424.97
2018-12-03T00:26:27.786Z,462.00
2018-12-03T00:28:58.933Z,472.30
2018-12-03T00:31:29.475Z,457.03
2018-12-03T00:33:59.869Z,437.97
2018-12-03T00:36:30.313Z,474.80
2018-12-03T00:39:00.588Z,462.33
2018-12-03T00:41:30.913Z,487.87
2018-12-03T00:44:01.453Z,495.20
2018-12-03T00:46:31.804Z,505.63
2018-12-03T00:49:02.210Z,488.67
2018-12-03T00:51:32.552Z,482.63
2018-12-03T00:54:02.717Z,506.77
2018-12-03T00:56:32.868Z,522.37
2018-12-03T00:59:03.171Z,544.80
2018-12-03T01:01:36.129Z,562.50
2018-12-03T01:04:06.675Z,596.00
2018-12-03T01:06:37.204Z,623.57
2018-12-03T01:09:09.493Z,583.63
2018-12-03T01:11:39.972Z,570.20
2018-12-03T01:14:10.441Z,577.00
2018-12-03T01:16:40.844Z,573.40
2018-12-03T01:19:11.270Z,559.90
2018-12-03T01:21:41.598Z,632.53
2018-12-03T01:24:11.936Z,522.50
2018-12-03T01:26:42.224Z,557.67
2018-12-03T01:29:12.587Z,528.83
2018-12-03T01:31:42.860Z,550.73
2018-12-03T01:34:13.162Z,515.80
2018-12-03T01:36:43.495Z,561.80
2018-12-03T01:39:13.567Z,580.90
2018-12-03T01:41:44.225Z,648.43
2018-12-03T01:44:14.557Z,583.13
2018-12-03T01:46:44.910Z,537.70
2018-12-03T01:49:15.291Z,519.30
2018-12-03T01:51:45.648Z,567.67
2018-12-03T01:54:15.793Z,591.93
2018-12-03T01:56:46.165Z,513.00
2018-12-03T01:59:16.399Z,545.80
2018-12-03T02:01:46.570Z,529.47
2018-12-03T02:04:16.934Z,523.53
2018-12-03T02:06:47.322Z,504.77
2018-12-03T02:09:17.621Z,511.60
2018-12-03T02:11:48.042Z,490.73
2018-12-03T02:14:18.530Z,514.17
2018-12-03T02:16:48.748Z,496.80
2018-12-03T02:19:19.204Z,483.33
2018-12-03T02:21:49.504Z,503.47
2018-12-03T02:24:19.864Z,528.73
2018-12-03T02:26:50.060Z,543.47
2018-12-03T02:29:21.084Z,560.17
2018-12-03T02:31:51.353Z,569.33
2018-12-03T02:34:21.646Z,568.03
2018-12-03T02:36:52.453Z,537.17
2018-12-03T02:39:23.060Z,550.77
2018-12-03T02:41:53.588Z,522.60
2018-12-03T02:44:24.063Z,573.67
2018-12-03T02:46:54.226Z,535.23
2018-12-03T02:49:24.517Z,530.63
2018-12-03T02:51:54.846Z,522.70
2018-12-03T02:54:25.216Z,517.53
2018-12-03T02:56:55.368Z,529.53
2018-12-03T02:59:25.606Z,538.00
2018-12-03T03:01:56.053Z,509.83
2018-12-03T03:04:26.472Z,517.37
2018-12-03T03:06:56.802Z,513.53
2018-12-03T03:09:27.029Z,500.43
2018-12-03T03:11:57.234Z,490.57
2018-12-03T03:14:27.473Z,510.20
2018-12-03T03:16:57.812Z,483.40
2018-12-03T03:19:28.042Z,506.37
2018-12-03T03:21:58.276Z,499.90
2018-12-03T03:24:28.533Z,491.90
2018-12-03T03:26:58.950Z,491.57
2018-12-03T03:29:29.793Z,491.70
2018-12-03T03:32:00.248Z,487.23
2018-12-03T03:34:30.372Z,512.17
2018-12-03T03:37:00.911Z,488.93
2018-12-03T03:39:31.303Z,483.97
2018-12-03T03:42:01.467Z,501.77
2018-12-03T03:44:31.854Z,490.63
2018-12-03T03:47:02.383Z,502.80
2018-12-03T03:49:32.549Z,491.57
2018-12-03T03:52:02.830Z,516.73
2018-12-03T03:54:33.064Z,455.30
2018-12-03T03:57:03.488Z,485.13
2018-12-03T03:59:33.771Z,500.20
2018-12-03T04:02:04.200Z,467.63
2018-12-03T04:04:34.419Z,473.53
2018-12-03T04:07:04.884Z,475.23
2018-12-03T04:09:35.152Z,463.73
2018-12-03T04:12:05.518Z,463.60
2018-12-03T04:14:35.775Z,470.37
2018-12-03T04:17:06.512Z,452.60
2018-12-03T04:19:36.966Z,477.80
2018-12-03T04:22:07.173Z,476.00
2018-12-03T04:24:37.469Z,467.60
2018-12-03T04:27:07.816Z,468.80
2018-12-03T04:29:38.129Z,484.37
2018-12-03T04:32:08.807Z,464.90
2018-12-03T04:34:39.209Z,470.43
2018-12-03T04:37:09.411Z,467.83
2018-12-03T04:39:39.634Z,480.33
2018-12-03T04:42:09.980Z,492.00
2018-12-03T04:44:40.303Z,500.27
2018-12-03T04:47:10.572Z,475.27
2018-12-03T04:49:40.790Z,492.17
2018-12-03T04:52:11.907Z,498.13
2018-12-03T04:54:42.095Z,482.63
2018-12-03T04:57:12.425Z,478.53
2018-12-03T04:59:42.768Z,485.93
2018-12-03T05:02:13.062Z,489.70
2018-12-03T05:04:43.434Z,482.57
2018-12-03T05:07:13.722Z,481.77
2018-12-03T05:09:43.921Z,462.10
2018-12-03T05:12:14.357Z,454.17
2018-12-03T05:14:44.565Z,448.53
2018-12-03T05:17:14.744Z,456.37
2018-12-03T05:19:44.963Z,459.57
2018-12-03T05:22:15.227Z,472.73
2018-12-03T05:24:45.580Z,407.40
2018-12-03T05:27:15.788Z,409.50
2018-12-03T05:29:46.149Z,409.87
2018-12-03T05:32:16.728Z,393.33
2018-12-03T05:34:47.092Z,446.97
2018-12-03T05:37:17.263Z,451.13
2018-12-03T05:39:47.636Z,471.97
2018-12-03T05:42:17.887Z,468.63
2018-12-03T05:44:48.287Z,471.47
2018-12-03T05:47:18.634Z,463.07
2018-12-03T05:49:48.796Z,459.10
2018-12-03T05:52:19.043Z,466.17
2018-12-03T05:54:49.313Z,462.03
2018-12-03T05:57:19.667Z,477.80
2018-12-03T05:59:50.065Z,474.50
2018-12-03T06:02:20.389Z,449.13
2018-12-03T06:04:50.609Z,445.40
2018-12-03T06:07:20.777Z,449.63
2018-12-03T06:09:51.029Z,448.63
2018-12-03T06:12:21.553Z,480.83
2018-12-03T06:14:51.870Z,437.50
2018-12-03T06:17:22.260Z,416.13
2018-12-03T06:19:52.509Z,421.80
2018-12-03T06:22:22.580Z,414.50
2018-12-03T06:24:52.746Z,409.90
2018-12-03T06:27:23.004Z,446.13
2018-12-03T06:29:53.227Z,441.10
2018-12-03T06:32:23.578Z,392.57
2018-12-03T06:34:53.799Z,379.10
2018-12-03T06:37:23.948Z,370.87
2018-12-03T06:39:54.342Z,351.80
2018-12-03T06:42:24.698Z,395.00
2018-12-03T06:44:55.078Z,381.40
2018-12-03T06:47:25.421Z,326.17
2018-12-03T06:49:55.513Z,306.43
2018-12-03T06:52:25.850Z,324.43
2018-12-03T06:54:56.660Z,306.07
2018-12-03T06:57:27.107Z,309.13
2018-12-03T06:59:57.424Z,325.60
2018-12-03T07:02:27.963Z,323.93
2018-12-03T07:04:58.221Z,318.83
2018-12-03T07:07:28.612Z,331.00
2018-12-03T07:09:58.903Z,324.73
2018-12-03T07:12:29.197Z,320.80
2018-12-03T07:14:59.568Z,337.57
2018-12-03T07:17:29.821Z,349.57
2018-12-03T07:20:00.252Z,350.27
2018-12-03T07:22:31.511Z,355.17
2018-12-03T07:25:01.723Z,369.33
2018-12-03T07:27:32.074Z,363.00
2018-12-03T07:30:02.457Z,341.83
2018-12-03T07:32:32.774Z,319.33
2018-12-03T07:35:03.229Z,336.93
2018-12-03T07:37:33.559Z,340.20
2018-12-03T07:40:03.912Z,346.17
2018-12-03T07:42:34.374Z,346.87
2018-12-03T07:45:05.794Z,384.00
2018-12-03T07:47:36.239Z,329.30
2018-12-03T07:50:09.340Z,346.93
2018-12-03T07:52:39.526Z,355.87
2018-12-03T07:55:12.723Z,367.57
2018-12-03T07:57:45.631Z,331.77
2018-12-03T08:00:20.338Z,335.93
2018-12-03T08:02:50.678Z,356.07
2018-12-03T08:05:21.351Z,353.10
2018-12-03T08:07:51.599Z,369.50
2018-12-03T08:10:21.994Z,365.00
2018-12-03T08:12:52.360Z,398.67
2018-12-03T08:15:22.810Z,366.03
2018-12-03T08:18:01.006Z,359.57
2018-12-03T08:20:37.793Z,353.33
2018-12-03T08:23:10.744Z,354.60
2018-12-03T08:25:41.253Z,323.30
2018-12-03T08:28:11.628Z,375.33
2018-12-03T08:30:42.001Z,364.53
2018-12-03T08:33:12.525Z,380.23
2018-12-03T08:35:42.995Z,362.73
2018-12-03T08:38:13.300Z,350.63
2018-12-03T08:40:43.570Z,354.57
2018-12-03T08:43:14.080Z,373.67
2018-12-03T08:45:44.434Z,377.17
2018-12-03T08:48:14.630Z,390.83
2018-12-03T08:50:46.663Z,405.57
2018-12-03T08:53:16.930Z,400.87
2018-12-03T08:55:47.244Z,366.97
2018-12-03T08:58:17.568Z,363.80
2018-12-03T09:00:48.345Z,340.20
2018-12-03T09:03:22.567Z,356.13
2018-12-03T09:05:52.942Z,372.87
2018-12-03T09:08:23.191Z,374.77
2018-12-03T09:10:53.892Z,369.73
2018-12-03T09:13:24.896Z,357.93
2018-12-03T09:16:00.657Z,380.80
2018-12-03T09:18:37.250Z,360.90
2018-12-03T09:21:11.249Z,371.80
2018-12-03T09:23:42.425Z,379.27
2018-12-03T09:26:13.255Z,384.30
2018-12-03T09:28:43.608Z,381.43
2018-12-03T09:31:19.210Z,393.03
2018-12-03T09:33:58.479Z,360.93
2018-12-03T09:36:29.434Z,380.23
2018-12-03T09:39:17.259Z,385.50
2018-12-03T09:41:48.798Z,373.47
2018-12-03T09:44:19.069Z,390.40
2018-12-03T09:46:49.366Z,399.37
2018-12-03T09:49:19.722Z,392.40
2018-12-03T09:51:50.112Z,406.13
2018-12-03T09:54:20.473Z,401.23
2018-12-03T09:56:52.276Z,410.93
2018-12-03T09:59:24.010Z,411.23
2018-12-03T10:01:56.345Z,403.93
2018-12-03T10:04:29.427Z,410.37
2018-12-03T10:06:59.807Z,408.60
2018-12-03T10:09:35.514Z,413.40
2018-12-03T10:12:06.928Z,421.97
2018-12-03T10:14:37.316Z,422.20
2018-12-03T10:17:07.958Z,430.20
2018-12-03T10:19:38.297Z,448.20
2018-12-03T10:22:09.117Z,454.67
2018-12-03T10:24:39.393Z,461.87
2018-12-03T10:27:12.483Z,467.33
2018-12-03T10:29:42.946Z,468.93
2018-12-03T10:32:18.807Z,471.53
2018-12-03T10:34:49.321Z,474.80
2018-12-03T10:37:21.294Z,476.23
2018-12-03T10:39:51.875Z,499.23
2018-12-03T10:42:22.274Z,505.43
2018-12-03T10:44:52.400Z,524.30
2018-12-03T10:47:22.846Z,563.73
2018-12-03T10:49:53.242Z,555.50
2018-12-03T10:52:24.549Z,563.90
2018-12-03T10:54:55.053Z,554.53
2018-12-03T10:57:25.691Z,568.83
2018-12-03T10:59:56.597Z,551.00
2018-12-03T11:02:29.982Z,571.87
2018-12-03T11:05:05.582Z,560.67
2018-12-03T11:07:35.866Z,549.83
2018-12-03T11:10:07.449Z,497.40
2018-12-03T11:12:37.859Z,524.83
2018-12-03T11:15:13.256Z,532.50
2018-12-03T11:17:43.697Z,516.37
2018-12-03T11:20:13.840Z,517.00
2018-12-03T11:22:44.475Z,524.87
2018-12-03T11:25:16.594Z,496.53
2018-12-03T11:27:48.739Z,494.00
2018-12-03T11:30:19.109Z,480.97
2018-12-03T11:32:49.367Z,494.10
2018-12-03T11:35:25.034Z,500.80
2018-12-03T11:38:01.309Z,489.53
2018-12-03T11:40:41.417Z,489.30
2018-12-03T11:43:11.995Z,483.87
2018-12-03T11:45:42.228Z,475.20
2018-12-03T11:48:12.578Z,478.33
2018-12-03T11:50:42.897Z,483.77
2018-12-03T11:53:13.337Z,496.80
2018-12-03T11:58:35.267Z,481.50
2018-12-03T12:01:05.991Z,493.17
2018-12-03T12:03:42.787Z,493.03
2018-12-03T12:06:13.486Z,492.20
2018-12-03T12:08:43.871Z,500.53
2018-12-03T12:11:15.050Z,502.10
2018-12-03T12:13:47.357Z,502.20
2018-12-03T12:16:17.633Z,517.20
2018-12-03T12:18:47.973Z,525.97
2018-12-03T12:21:18.715Z,505.03
2018-12-03T12:23:49.442Z,518.60
2018-12-03T12:26:19.814Z,522.90
2018-12-03T12:28:50.012Z,510.40
2018-12-03T12:31:20.397Z,498.40
2018-12-03T12:33:50.755Z,514.23
2018-12-03T12:36:21.113Z,499.10
2018-12-03T12:38:51.450Z,497.50
2018-12-03T12:41:21.764Z,500.43
2018-12-03T12:43:51.967Z,500.10
2018-12-03T12:46:24.825Z,486.77
2018-12-03T12:48:55.309Z,497.83
2018-12-03T12:51:25.582Z,494.57
2018-12-03T12:53:55.918Z,480.17
2018-12-03T12:56:26.229Z,465.87
2018-12-03T12:58:56.697Z,455.40
2018-12-03T13:01:27.072Z,471.47
2018-12-03T13:03:57.382Z,470.80
2018-12-03T13:06:27.730Z,463.80
2018-12-03T13:08:58.094Z,466.40
2018-12-03T13:11:28.493Z,458.77
2018-12-03T13:13:58.745Z,461.40
2018-12-03T13:16:28.966Z,456.77
2018-12-03T13:18:59.200Z,439.93
2018-12-03T13:21:29.358Z,459.10
2018-12-03T13:23:59.591Z,440.47
2018-12-03T13:26:30.751Z,453.10
2018-12-03T13:29:01.570Z,452.07
2018-12-03T13:31:31.843Z,442.87
2018-12-03T13:34:02.141Z,458.83
2018-12-03T13:36:32.410Z,455.90
2018-12-03T13:39:05.840Z,454.23
2018-12-03T13:41:37.279Z,467.80
2018-12-03T13:44:08.868Z,453.37
2018-12-03T13:46:39.743Z,494.10
2018-12-03T13:49:10.071Z,491.77
2018-12-03T13:51:40.527Z,473.87
2018-12-03T13:54:10.967Z,482.63
2018-12-03T13:56:43.974Z,472.10
2018-12-03T13:59:14.191Z,496.17
2018-12-03T14:01:44.648Z,512.97
2018-12-03T14:04:15.841Z,500.73
2018-12-03T14:07:02.146Z,495.10
2018-12-03T14:09:56.696Z,428.97
2018-12-03T14:12:55.800Z,432.90
2018-12-03T14:15:39.528Z,452.33
2018-12-03T14:18:14.519Z,458.27
2018-12-03T14:20:47.338Z,501.83
2018-12-03T14:23:21.029Z,482.63
2018-12-03T14:25:51.313Z,451.20
2018-12-03T14:28:21.603Z,482.70
2018-12-03T14:30:51.964Z,484.23
2018-12-03T14:33:22.418Z,480.30
2018-12-03T14:35:52.612Z,511.70
2018-12-03T14:38:22.898Z,535.10
2018-12-03T14:40:53.567Z,548.50
2018-12-03T14:43:23.811Z,565.33
2018-12-03T14:45:54.223Z,569.33
2018-12-03T14:48:24.436Z,598.03
2018-12-03T14:50:54.578Z,639.70
2018-12-03T14:53:24.749Z,598.13
2018-12-03T14:55:55.038Z,609.50
2018-12-03T14:58:25.247Z,608.77
2018-12-03T15:00:56.540Z,593.87
2018-12-03T15:03:27.623Z,583.67
2018-12-03T15:05:58.531Z,607.83
2018-12-03T15:08:28.793Z,752.50
2018-12-03T15:10:59.006Z,615.43
2018-12-03T15:13:29.350Z,594.93
2018-12-03T15:15:59.678Z,578.87
2018-12-03T15:18:30.143Z,604.63
2018-12-03T15:21:00.338Z,589.67
2018-12-03T15:23:30.598Z,558.60
2018-12-03T15:26:01.098Z,626.93
2018-12-03T15:28:31.420Z,566.60
2018-12-03T15:31:02.423Z,537.83
2018-12-03T15:33:32.623Z,523.77
2018-12-03T15:36:02.722Z,501.37
2018-12-03T15:38:33.154Z,535.13
2018-12-03T15:41:03.814Z,543.40
2018-12-03T15:43:34.178Z,563.20
2018-12-03T15:46:04.482Z,555.17
2018-12-03T15:48:34.628Z,519.40
2018-12-03T15:51:05.123Z,527.47
2018-12-03T15:53:35.450Z,550.90
2018-12-03T15:56:05.787Z,562.93
2018-12-03T15:58:36.107Z,582.60
2018-12-03T16:01:06.377Z,486.53
2018-12-03T16:03:36.701Z,515.03
2018-12-03T16:06:06.875Z,524.30
2018-12-03T16:08:37.236Z,522.37
2018-12-03T16:11:07.483Z,498.07
2018-12-03T16:13:37.768Z,490.40
2018-12-03T16:16:08.270Z,532.23
2018-12-03T16:18:38.659Z,514.00
2018-12-03T16:21:09.063Z,515.83
2018-12-03T16:23:39.282Z,536.03
2018-12-03T16:26:09.618Z,644.30
2018-12-03T16:28:39.861Z,540.57
2018-12-03T16:31:10.191Z,524.20
2018-12-03T16:33:40.471Z,523.90
2018-12-03T16:36:10.710Z,510.23
2018-12-03T16:38:41.266Z,511.93
2018-12-03T16:41:11.611Z,508.50
2018-12-03T16:43:41.954Z,479.67
2018-12-03T16:46:12.266Z,479.37
2018-12-03T16:48:42.633Z,480.17
2018-12-03T16:51:13.072Z,508.33
2018-12-03T16:53:43.312Z,476.30
2018-12-03T16:56:13.633Z,495.13
2018-12-03T16:58:43.946Z,452.50
2018-12-03T17:01:14.232Z,414.57
2018-12-03T17:03:44.587Z,389.40
2018-12-03T17:06:14.902Z,401.83
2018-12-03T17:08:46.197Z,437.67
2018-12-03T17:11:16.989Z,409.53
2018-12-03T17:13:47.336Z,432.43
2018-12-03T17:16:17.934Z,447.97
2018-12-03T17:18:50.116Z,498.90
2018-12-03T17:21:37.718Z,452.73
2018-12-03T17:24:11.314Z,467.63
2018-12-03T17:26:42.185Z,488.60
2018-12-03T17:29:12.557Z,542.03
2018-12-03T17:31:42.982Z,488.47
2018-12-03T17:34:13.306Z,450.50
2018-12-03T17:36:43.684Z,441.23
2018-12-03T17:39:13.892Z,427.87
2018-12-03T17:41:46.437Z,412.30
2018-12-03T17:44:16.750Z,389.03
2018-12-03T17:46:47.195Z,409.47
2018-12-03T17:49:18.011Z,401.03
2018-12-03T17:51:48.345Z,370.50
2018-12-03T17:54:18.473Z,361.60
2018-12-03T17:56:48.788Z,365.40
2018-12-03T17:59:19.208Z,355.40
2018-12-03T18:03:18.785Z,367.17
2018-12-03T18:05:49.131Z,325.80
2018-12-03T18:08:19.266Z,354.13
2018-12-03T18:10:49.649Z,349.13
2018-12-03T18:13:19.952Z,351.63
2018-12-03T18:15:50.434Z,354.10
2018-12-03T18:18:20.833Z,393.47
2018-12-03T18:20:51.266Z,385.97
2018-12-03T18:23:21.420Z,414.80
2018-12-03T18:25:51.849Z,353.67
2018-12-03T18:28:22.097Z,361.53
2018-12-03T18:30:52.404Z,371.93
2018-12-03T18:33:23.407Z,361.13
2018-12-03T18:35:53.811Z,376.57
2018-12-03T18:38:24.727Z,378.17
2018-12-03T18:40:55.323Z,364.53
2018-12-03T18:43:25.439Z,369.27
2018-12-03T18:45:55.771Z,391.93
2018-12-03T18:48:27.232Z,391.07
2018-12-03T18:50:57.587Z,408.17
2018-12-03T18:53:28.927Z,404.90
2018-12-03T18:55:59.354Z,402.73
2018-12-03T18:58:35.267Z,378.37
2018-12-03T19:01:05.830Z,431.83
2018-12-03T19:03:36.195Z,456.83
2018-12-03T19:06:07.215Z,427.77
2018-12-03T19:08:37.591Z,438.83
2018-12-03T19:11:09.204Z,437.77
2018-12-03T19:13:39.756Z,426.70
2018-12-03T19:16:10.159Z,413.03
2018-12-03T19:18:40.301Z,446.97
2018-12-03T19:21:10.798Z,464.33
2018-12-03T19:23:41.199Z,444.73
2018-12-03T19:26:11.678Z,448.70
2018-12-03T19:28:42.051Z,415.50
2018-12-03T19:31:12.362Z,425.20
2018-12-03T19:33:44.807Z,437.63
2018-12-03T19:36:22.904Z,450.57
2018-12-03T19:38:53.064Z,419.17
2018-12-03T19:41:23.451Z,404.63
2018-12-03T19:43:53.844Z,406.83
2018-12-03T19:46:24.275Z,404.87
2018-12-03T19:48:54.640Z,392.07
2018-12-03T19:51:24.847Z,417.43
2018-12-03T19:53:56.255Z,424.17
2018-12-03T19:56:26.676Z,436.10
2018-12-03T19:58:57.324Z,431.67
2018-12-03T20:01:27.686Z,418.40
2018-12-03T20:03:58.073Z,422.73
2018-12-03T20:06:28.392Z,402.23
2018-12-03T20:08:58.778Z,394.43
2018-12-03T20:11:29.200Z,391.60
2018-12-03T20:13:59.533Z,422.87
2018-12-03T20:16:29.772Z,401.37
2018-12-03T20:19:00.087Z,405.30
2018-12-03T20:21:30.447Z,410.53
2018-12-03T20:24:07.086Z,431.00
2018-12-03T20:26:41.396Z,460.50
2018-12-03T20:29:31.241Z,436.47
2018-12-03T20:33:09.978Z,457.70
2018-12-03T20:35:51.797Z,438.70
2018-12-03T20:38:32.051Z,463.13
2018-12-03T20:41:34.916Z,487.57
2018-12-03T20:44:23.812Z,430.03
2018-12-03T20:47:02.430Z,445.13
2018-12-03T20:49:45.298Z,436.50
2018-12-03T20:52:20.849Z,437.87
2018-12-03T20:54:53.991Z,444.10
2018-12-03T20:57:26.501Z,471.03
2018-12-03T20:59:56.729Z,472.87
2018-12-03T21:02:27.811Z,497.50
2018-12-03T21:04:58.083Z,473.47
2018-12-03T21:07:28.383Z,450.00
2018-12-03T21:09:58.475Z,505.43
2018-12-03T21:12:28.836Z,460.23
2018-12-03T21:14:59.122Z,493.40
2018-12-03T21:17:29.412Z,463.83
2018-12-03T21:20:06.664Z,455.43
2018-12-03T21:22:37.075Z,443.27
2018-12-03T21:25:07.305Z,465.17
2018-12-03T21:27:37.630Z,442.90
2018-12-03T21:30:09.679Z,435.23
2018-12-03T21:32:40.012Z,418.03
2018-12-03T21:35:10.112Z,428.80
2018-12-03T21:37:40.350Z,428.13
2018-12-03T21:40:10.692Z,450.83
2018-12-03T21:42:40.912Z,463.97
2018-12-03T21:45:11.171Z,471.67
2018-12-03T21:47:41.365Z,463.07
2018-12-03T21:50:11.754Z,449.47
2018-12-03T21:52:41.954Z,434.93
2018-12-03T21:55:13.179Z,439.40
2018-12-03T21:57:43.864Z,420.17
2018-12-03T22:00:19.671Z,439.13
2018-12-03T22:02:49.773Z,429.33
2018-12-03T22:05:20.073Z,424.80
2018-12-03T22:07:50.481Z,411.50
2018-12-03T22:10:20.710Z,423.97
2018-12-03T22:12:50.934Z,423.90
2018-12-03T22:15:21.442Z,413.00
2018-12-03T22:17:51.658Z,438.27
2018-12-03T22:20:21.962Z,434.10
2018-12-03T22:22:52.208Z,429.60
2018-12-03T22:25:22.471Z,431.23
2018-12-03T22:27:52.823Z,437.53
2018-12-03T22:30:23.120Z,426.40
2018-12-03T22:32:53.336Z,428.77
2018-12-03T22:35:23.617Z,441.10
2018-12-03T22:37:53.813Z,420.70
2018-12-03T22:40:24.259Z,407.57
2018-12-03T22:42:54.563Z,395.53
2018-12-03T22:45:25.436Z,398.43
2018-12-03T22:47:55.703Z,383.80
2018-12-03T22:50:25.773Z,394.70
2018-12-03T22:52:55.957Z,394.50
2018-12-03T22:55:26.462Z,397.03
2018-12-03T22:57:56.736Z,380.43
2018-12-03T23:00:36.263Z,364.57
2018-12-03T23:03:06.839Z,392.77
2018-12-03T23:05:37.211Z,394.97
2018-12-03T23:08:07.334Z,422.47
2018-12-03T23:10:37.952Z,400.90
2018-12-03T23:13:08.316Z,394.57
2018-12-03T23:15:38.714Z,411.90
2018-12-03T23:18:09.155Z,403.37
2018-12-03T23:20:39.577Z,397.50
2018-12-03T23:23:09.894Z,374.93
2018-12-03T23:25:40.161Z,390.17
2018-12-03T23:28:10.310Z,398.57
2018-12-03T23:30:40.541Z,395.00
2018-12-03T23:33:10.814Z,376.03
2018-12-03T23:35:41.273Z,403.60
2018-12-03T23:38:11.463Z,394.40
2018-12-03T23:40:41.708Z,368.07
2018-12-03T23:43:12.027Z,402.63
2018-12-03T23:45:42.202Z,426.63
2018-12-03T23:48:12.530Z,395.30
2018-12-03T23:50:42.834Z,386.87
2018-12-03T23:53:13.123Z,401.27
2018-12-03T23:55:43.354Z,401.20
2018-12-03T23:58:13.677Z,366.20
